sensor_id;sensor_type;location;lat;lon;timestamp;P1;durP1;ratioP1;P2;durP2;ratioP2
67063;SDS011;58476;48.072;11.970;2023-12-14T00:01:27;2.25;;;0.85;;
67063;SDS011;58476;48.072;11.970;2023-12-14T00:03:52;0.70;;;0.65;;
67063;SDS011;58476;48.072;11.970;2023-12-14T00:06:17;2.97;;;0.98;;
67063;SDS011;58476;48.072;11.970;2023-12-14T00:08:43;1.30;;;0.77;;
67063;SDS011;58476;48.072;11.970;2023-12-14T00:11:09;6.25;;;0.90;;
67063;SDS011;58476;48.072;11.970;2023-12-14T00:13:36;1.90;;;0.55;;
67063;SDS011;58476;48.072;11.970;2023-12-14T00:16:02;1.98;;;0.77;;
67063;SDS011;58476;48.072;11.970;2023-12-14T00:18:27;2.22;;;0.73;;
67063;SDS011;58476;48.072;11.970;2023-12-14T00:20:53;1.75;;;0.60;;
67063;SDS011;58476;48.072;11.970;2023-12-14T00:23:18;1.83;;;0.63;;
67063;SDS011;58476;48.072;11.970;2023-12-14T00:25:43;0.75;;;0.60;;
67063;SDS011;58476;48.072;11.970;2023-12-14T00:28:09;3.33;;;0.90;;
67063;SDS011;58476;48.072;11.970;2023-12-14T00:30:34;0.70;;;0.70;;
67063;SDS011;58476;48.072;11.970;2023-12-14T00:32:59;2.28;;;0.50;;
67063;SDS011;58476;48.072;11.970;2023-12-14T00:35:25;1.45;;;0.50;;
67063;SDS011;58476;48.072;11.970;2023-12-14T00:37:50;1.60;;;0.82;;
67063;SDS011;58476;48.072;11.970;2023-12-14T00:40:16;2.17;;;0.63;;
67063;SDS011;58476;48.072;11.970;2023-12-14T00:42:41;1.08;;;0.98;;
67063;SDS011;58476;48.072;11.970;2023-12-14T00:45:06;1.58;;;0.60;;
67063;SDS011;58476;48.072;11.970;2023-12-14T00:47:32;2.40;;;0.75;;
67063;SDS011;58476;48.072;11.970;2023-12-14T00:49:57;2.60;;;0.70;;
67063;SDS011;58476;48.072;11.970;2023-12-14T00:52:23;1.02;;;0.60;;
67063;SDS011;58476;48.072;11.970;2023-12-14T00:54:48;0.82;;;0.75;;
67063;SDS011;58476;48.072;11.970;2023-12-14T00:57:13;3.35;;;0.80;;
67063;SDS011;58476;48.072;11.970;2023-12-14T00:59:39;1.17;;;0.90;;
67063;SDS011;58476;48.072;11.970;2023-12-14T01:02:04;0.70;;;0.60;;
67063;SDS011;58476;48.072;11.970;2023-12-14T01:04:29;0.50;;;0.50;;
67063;SDS011;58476;48.072;11.970;2023-12-14T01:06:54;0.60;;;0.60;;
67063;SDS011;58476;48.072;11.970;2023-12-14T01:09:20;1.73;;;0.88;;
67063;SDS011;58476;48.072;11.970;2023-12-14T01:11:45;1.42;;;0.60;;
67063;SDS011;58476;48.072;11.970;2023-12-14T01:14:11;2.20;;;0.60;;
67063;SDS011;58476;48.072;11.970;2023-12-14T01:16:36;2.05;;;0.60;;
67063;SDS011;58476;48.072;11.970;2023-12-14T01:19:01;2.40;;;0.65;;
67063;SDS011;58476;48.072;11.970;2023-12-14T01:21:27;2.20;;;0.68;;
67063;SDS011;58476;48.072;11.970;2023-12-14T01:23:52;1.58;;;0.52;;
67063;SDS011;58476;48.072;11.970;2023-12-14T01:26:17;0.60;;;0.50;;
67063;SDS011;58476;48.072;11.970;2023-12-14T01:28:42;0.98;;;0.60;;
67063;SDS011;58476;48.072;11.970;2023-12-14T01:31:08;0.50;;;0.50;;
67063;SDS011;58476;48.072;11.970;2023-12-14T01:33:33;0.50;;;0.50;;
67063;SDS011;58476;48.072;11.970;2023-12-14T01:35:58;0.63;;;0.60;;
67063;SDS011;58476;48.072;11.970;2023-12-14T01:38:24;0.75;;;0.50;;
67063;SDS011;58476;48.072;11.970;2023-12-14T01:40:49;0.50;;;0.50;;
67063;SDS011;58476;48.072;11.970;2023-12-14T01:43:14;0.65;;;0.60;;
67063;SDS011;58476;48.072;11.970;2023-12-14T01:45:39;1.95;;;0.90;;
67063;SDS011;58476;48.072;11.970;2023-12-14T01:48:05;0.90;;;0.70;;
67063;SDS011;58476;48.072;11.970;2023-12-14T01:50:30;1.17;;;0.75;;
67063;SDS011;58476;48.072;11.970;2023-12-14T01:52:56;0.95;;;0.70;;
67063;SDS011;58476;48.072;11.970;2023-12-14T01:55:21;1.15;;;0.70;;
67063;SDS011;58476;48.072;11.970;2023-12-14T01:57:46;0.63;;;0.63;;
67063;SDS011;58476;48.072;11.970;2023-12-14T02:00:13;0.40;;;0.40;;
67063;SDS011;58476;48.072;11.970;2023-12-14T02:02:49;0.60;;;0.50;;
67063;SDS011;58476;48.072;11.970;2023-12-14T02:05:16;0.75;;;0.63;;
67063;SDS011;58476;48.072;11.970;2023-12-14T02:07:41;0.63;;;0.40;;
67063;SDS011;58476;48.072;11.970;2023-12-14T02:10:07;0.50;;;0.50;;
67063;SDS011;58476;48.072;11.970;2023-12-14T02:12:32;0.77;;;0.55;;
67063;SDS011;58476;48.072;11.970;2023-12-14T02:14:58;0.50;;;0.50;;
67063;SDS011;58476;48.072;11.970;2023-12-14T02:17:24;0.47;;;0.47;;
67063;SDS011;58476;48.072;11.970;2023-12-14T02:19:49;1.73;;;0.73;;
67063;SDS011;58476;48.072;11.970;2023-12-14T02:22:16;1.35;;;0.40;;
67063;SDS011;58476;48.072;11.970;2023-12-14T02:24:41;1.05;;;0.60;;
67063;SDS011;58476;48.072;11.970;2023-12-14T02:27:07;2.22;;;0.50;;
67063;SDS011;58476;48.072;11.970;2023-12-14T02:29:32;0.40;;;0.40;;
67063;SDS011;58476;48.072;11.970;2023-12-14T02:31:57;1.45;;;0.57;;
67063;SDS011;58476;48.072;11.970;2023-12-14T02:34:22;1.48;;;0.60;;
67063;SDS011;58476;48.072;11.970;2023-12-14T02:36:48;0.82;;;0.32;;
67063;SDS011;58476;48.072;11.970;2023-12-14T02:39:13;0.63;;;0.60;;
67063;SDS011;58476;48.072;11.970;2023-12-14T02:41:38;0.30;;;0.30;;
67063;SDS011;58476;48.072;11.970;2023-12-14T02:44:04;0.43;;;0.43;;
67063;SDS011;58476;48.072;11.970;2023-12-14T02:46:29;0.55;;;0.50;;
67063;SDS011;58476;48.072;11.970;2023-12-14T02:48:54;0.68;;;0.47;;
67063;SDS011;58476;48.072;11.970;2023-12-14T02:51:20;0.77;;;0.43;;
67063;SDS011;58476;48.072;11.970;2023-12-14T02:53:45;0.50;;;0.45;;
67063;SDS011;58476;48.072;11.970;2023-12-14T02:56:10;0.52;;;0.52;;
67063;SDS011;58476;48.072;11.970;2023-12-14T02:58:35;0.45;;;0.45;;
67063;SDS011;58476;48.072;11.970;2023-12-14T03:01:01;1.70;;;0.55;;
67063;SDS011;58476;48.072;11.970;2023-12-14T03:03:26;0.50;;;0.50;;
67063;SDS011;58476;48.072;11.970;2023-12-14T03:05:51;0.40;;;0.40;;
67063;SDS011;58476;48.072;11.970;2023-12-14T03:08:19;0.50;;;0.50;;
67063;SDS011;58476;48.072;11.970;2023-12-14T03:10:45;1.13;;;0.50;;
67063;SDS011;58476;48.072;11.970;2023-12-14T03:13:10;0.55;;;0.55;;
67063;SDS011;58476;48.072;11.970;2023-12-14T03:15:35;1.15;;;0.60;;
67063;SDS011;58476;48.072;11.970;2023-12-14T03:18:00;0.60;;;0.60;;
67063;SDS011;58476;48.072;11.970;2023-12-14T03:20:26;0.90;;;0.40;;
67063;SDS011;58476;48.072;11.970;2023-12-14T03:22:51;0.88;;;0.70;;
67063;SDS011;58476;48.072;11.970;2023-12-14T03:25:16;0.75;;;0.50;;
67063;SDS011;58476;48.072;11.970;2023-12-14T03:27:42;0.70;;;0.70;;
67063;SDS011;58476;48.072;11.970;2023-12-14T03:30:07;0.40;;;0.40;;
67063;SDS011;58476;48.072;11.970;2023-12-14T03:32:32;2.20;;;0.75;;
67063;SDS011;58476;48.072;11.970;2023-12-14T03:34:58;0.40;;;0.40;;
67063;SDS011;58476;48.072;11.970;2023-12-14T03:37:23;0.45;;;0.45;;
67063;SDS011;58476;48.072;11.970;2023-12-14T03:39:48;0.52;;;0.50;;
67063;SDS011;58476;48.072;11.970;2023-12-14T03:42:14;0.50;;;0.50;;
67063;SDS011;58476;48.072;11.970;2023-12-14T03:44:39;0.73;;;0.70;;
67063;SDS011;58476;48.072;11.970;2023-12-14T03:47:04;0.65;;;0.60;;
67063;SDS011;58476;48.072;11.970;2023-12-14T03:49:31;0.30;;;0.30;;
67063;SDS011;58476;48.072;11.970;2023-12-14T03:52:01;2.45;;;0.40;;
67063;SDS011;58476;48.072;11.970;2023-12-14T03:54:27;0.35;;;0.35;;
67063;SDS011;58476;48.072;11.970;2023-12-14T03:56:52;1.27;;;0.60;;
67063;SDS011;58476;48.072;11.970;2023-12-14T03:59:17;0.50;;;0.50;;
67063;SDS011;58476;48.072;11.970;2023-12-14T04:01:43;1.00;;;0.77;;
67063;SDS011;58476;48.072;11.970;2023-12-14T04:04:08;0.60;;;0.40;;
67063;SDS011;58476;48.072;11.970;2023-12-14T04:06:33;0.38;;;0.38;;
67063;SDS011;58476;48.072;11.970;2023-12-14T04:08:58;0.35;;;0.35;;
67063;SDS011;58476;48.072;11.970;2023-12-14T04:11:24;0.40;;;0.40;;
67063;SDS011;58476;48.072;11.970;2023-12-14T04:13:49;0.68;;;0.47;;
67063;SDS011;58476;48.072;11.970;2023-12-14T04:16:14;0.60;;;0.55;;
67063;SDS011;58476;48.072;11.970;2023-12-14T04:18:40;0.40;;;0.40;;
67063;SDS011;58476;48.072;11.970;2023-12-14T04:21:05;0.50;;;0.50;;
67063;SDS011;58476;48.072;11.970;2023-12-14T04:23:30;0.40;;;0.40;;
67063;SDS011;58476;48.072;11.970;2023-12-14T04:25:56;0.50;;;0.50;;
67063;SDS011;58476;48.072;11.970;2023-12-14T04:28:21;0.40;;;0.40;;
67063;SDS011;58476;48.072;11.970;2023-12-14T04:30:46;0.68;;;0.45;;
67063;SDS011;58476;48.072;11.970;2023-12-14T04:33:12;0.40;;;0.40;;
67063;SDS011;58476;48.072;11.970;2023-12-14T04:35:37;0.90;;;0.60;;
67063;SDS011;58476;48.072;11.970;2023-12-14T04:38:02;1.55;;;0.70;;
67063;SDS011;58476;48.072;11.970;2023-12-14T04:40:28;0.52;;;0.52;;
67063;SDS011;58476;48.072;11.970;2023-12-14T04:42:53;0.52;;;0.52;;
67063;SDS011;58476;48.072;11.970;2023-12-14T04:45:18;0.47;;;0.47;;
67063;SDS011;58476;48.072;11.970;2023-12-14T04:47:43;1.75;;;0.57;;
67063;SDS011;58476;48.072;11.970;2023-12-14T04:50:09;2.53;;;0.75;;
67063;SDS011;58476;48.072;11.970;2023-12-14T04:52:34;0.60;;;0.60;;
67063;SDS011;58476;48.072;11.970;2023-12-14T04:55:00;0.60;;;0.60;;
67063;SDS011;58476;48.072;11.970;2023-12-14T04:57:25;0.88;;;0.60;;
67063;SDS011;58476;48.072;11.970;2023-12-14T04:59:50;0.60;;;0.60;;
67063;SDS011;58476;48.072;11.970;2023-12-14T05:02:15;1.10;;;0.80;;
67063;SDS011;58476;48.072;11.970;2023-12-14T05:04:41;3.17;;;0.93;;
67063;SDS011;58476;48.072;11.970;2023-12-14T05:07:06;7.68;;;0.90;;
67063;SDS011;58476;48.072;11.970;2023-12-14T05:09:31;2.40;;;0.73;;
67063;SDS011;58476;48.072;11.970;2023-12-14T05:11:57;3.28;;;1.00;;
67063;SDS011;58476;48.072;11.970;2023-12-14T05:14:23;3.53;;;1.20;;
67063;SDS011;58476;48.072;11.970;2023-12-14T05:16:48;2.13;;;0.88;;
67063;SDS011;58476;48.072;11.970;2023-12-14T05:19:13;10.27;;;1.27;;
67063;SDS011;58476;48.072;11.970;2023-12-14T05:21:39;6.45;;;1.13;;
67063;SDS011;58476;48.072;11.970;2023-12-14T05:24:04;8.23;;;1.30;;
67063;SDS011;58476;48.072;11.970;2023-12-14T05:26:30;2.80;;;1.13;;
67063;SDS011;58476;48.072;11.970;2023-12-14T05:28:55;3.08;;;1.40;;
67063;SDS011;58476;48.072;11.970;2023-12-14T05:31:21;7.10;;;1.38;;
67063;SDS011;58476;48.072;11.970;2023-12-14T05:33:46;3.65;;;1.10;;
67063;SDS011;58476;48.072;11.970;2023-12-14T05:36:12;9.75;;;1.55;;
67063;SDS011;58476;48.072;11.970;2023-12-14T05:38:40;6.47;;;1.60;;
67063;SDS011;58476;48.072;11.970;2023-12-14T05:41:06;12.10;;;1.27;;
67063;SDS011;58476;48.072;11.970;2023-12-14T05:43:32;11.95;;;1.48;;
67063;SDS011;58476;48.072;11.970;2023-12-14T05:45:57;8.07;;;1.13;;
67063;SDS011;58476;48.072;11.970;2023-12-14T05:48:23;7.07;;;1.48;;
67063;SDS011;58476;48.072;11.970;2023-12-14T05:50:48;5.32;;;1.75;;
67063;SDS011;58476;48.072;11.970;2023-12-14T05:53:14;9.05;;;1.98;;
67063;SDS011;58476;48.072;11.970;2023-12-14T05:55:39;12.65;;;2.65;;
67063;SDS011;58476;48.072;11.970;2023-12-14T05:58:04;12.23;;;2.45;;
67063;SDS011;58476;48.072;11.970;2023-12-14T06:00:30;12.20;;;2.10;;
67063;SDS011;58476;48.072;11.970;2023-12-14T06:02:55;11.73;;;2.20;;
67063;SDS011;58476;48.072;11.970;2023-12-14T06:05:20;10.20;;;3.00;;
67063;SDS011;58476;48.072;11.970;2023-12-14T06:07:45;9.57;;;2.40;;
67063;SDS011;58476;48.072;11.970;2023-12-14T06:10:11;12.23;;;2.97;;
67063;SDS011;58476;48.072;11.970;2023-12-14T06:12:36;6.65;;;2.20;;
67063;SDS011;58476;48.072;11.970;2023-12-14T06:15:01;6.28;;;2.00;;
67063;SDS011;58476;48.072;11.970;2023-12-14T06:17:27;8.40;;;2.00;;
67063;SDS011;58476;48.072;11.970;2023-12-14T06:19:52;9.10;;;1.88;;
67063;SDS011;58476;48.072;11.970;2023-12-14T06:22:18;10.52;;;2.60;;
67063;SDS011;58476;48.072;11.970;2023-12-14T06:24:43;7.00;;;1.77;;
67063;SDS011;58476;48.072;11.970;2023-12-14T06:27:08;5.53;;;2.25;;
67063;SDS011;58476;48.072;11.970;2023-12-14T06:29:34;8.38;;;1.80;;
67063;SDS011;58476;48.072;11.970;2023-12-14T06:31:59;6.80;;;1.42;;
67063;SDS011;58476;48.072;11.970;2023-12-14T06:34:24;5.57;;;1.30;;
67063;SDS011;58476;48.072;11.970;2023-12-14T06:36:50;7.13;;;1.80;;
67063;SDS011;58476;48.072;11.970;2023-12-14T06:39:15;5.35;;;1.70;;
67063;SDS011;58476;48.072;11.970;2023-12-14T06:41:40;3.72;;;1.30;;
67063;SDS011;58476;48.072;11.970;2023-12-14T06:44:05;4.57;;;1.52;;
67063;SDS011;58476;48.072;11.970;2023-12-14T06:46:31;5.95;;;1.52;;
67063;SDS011;58476;48.072;11.970;2023-12-14T06:48:56;3.28;;;1.25;;
67063;SDS011;58476;48.072;11.970;2023-12-14T06:51:21;4.45;;;1.67;;
67063;SDS011;58476;48.072;11.970;2023-12-14T06:53:47;3.33;;;1.50;;
67063;SDS011;58476;48.072;11.970;2023-12-14T06:56:13;2.38;;;1.60;;
67063;SDS011;58476;48.072;11.970;2023-12-14T06:58:42;3.10;;;1.50;;
67063;SDS011;58476;48.072;11.970;2023-12-14T07:01:12;2.15;;;1.17;;
67063;SDS011;58476;48.072;11.970;2023-12-14T07:03:41;4.45;;;1.75;;
67063;SDS011;58476;48.072;11.970;2023-12-14T07:06:07;2.80;;;1.23;;
67063;SDS011;58476;48.072;11.970;2023-12-14T07:08:32;2.33;;;1.45;;
67063;SDS011;58476;48.072;11.970;2023-12-14T07:10:58;2.88;;;1.30;;
67063;SDS011;58476;48.072;11.970;2023-12-14T07:13:23;5.88;;;1.30;;
67063;SDS011;58476;48.072;11.970;2023-12-14T07:15:49;1.95;;;1.17;;
67063;SDS011;58476;48.072;11.970;2023-12-14T07:18:14;1.10;;;1.00;;
67063;SDS011;58476;48.072;11.970;2023-12-14T07:20:39;3.72;;;1.40;;
67063;SDS011;58476;48.072;11.970;2023-12-14T07:23:05;12.32;;;1.75;;
67063;SDS011;58476;48.072;11.970;2023-12-14T07:25:30;3.45;;;1.80;;
67063;SDS011;58476;48.072;11.970;2023-12-14T07:27:55;8.02;;;2.58;;
67063;SDS011;58476;48.072;11.970;2023-12-14T07:30:21;6.85;;;1.45;;
67063;SDS011;58476;48.072;11.970;2023-12-14T07:32:46;2.85;;;1.42;;
67063;SDS011;58476;48.072;11.970;2023-12-14T07:35:11;2.30;;;1.40;;
67063;SDS011;58476;48.072;11.970;2023-12-14T07:37:36;9.45;;;1.33;;
67063;SDS011;58476;48.072;11.970;2023-12-14T07:40:02;9.30;;;1.60;;
67063;SDS011;58476;48.072;11.970;2023-12-14T07:42:27;8.15;;;1.70;;
67063;SDS011;58476;48.072;11.970;2023-12-14T07:44:53;10.10;;;1.98;;
67063;SDS011;58476;48.072;11.970;2023-12-14T07:47:18;14.27;;;4.38;;
67063;SDS011;58476;48.072;11.970;2023-12-14T07:49:44;14.10;;;3.67;;
67063;SDS011;58476;48.072;11.970;2023-12-14T07:52:09;9.82;;;3.65;;
67063;SDS011;58476;48.072;11.970;2023-12-14T07:54:34;21.13;;;2.47;;
67063;SDS011;58476;48.072;11.970;2023-12-14T07:57:00;21.08;;;3.72;;
67063;SDS011;58476;48.072;11.970;2023-12-14T07:59:26;17.02;;;3.05;;
67063;SDS011;58476;48.072;11.970;2023-12-14T08:01:51;15.35;;;3.08;;
67063;SDS011;58476;48.072;11.970;2023-12-14T08:04:16;23.90;;;3.72;;
67063;SDS011;58476;48.072;11.970;2023-12-14T08:06:42;15.30;;;3.03;;
67063;SDS011;58476;48.072;11.970;2023-12-14T08:09:07;18.77;;;3.10;;
67063;SDS011;58476;48.072;11.970;2023-12-14T08:11:33;26.33;;;3.47;;
67063;SDS011;58476;48.072;11.970;2023-12-14T08:13:58;21.05;;;3.42;;
67063;SDS011;58476;48.072;11.970;2023-12-14T08:16:23;20.10;;;3.22;;
67063;SDS011;58476;48.072;11.970;2023-12-14T08:18:49;18.58;;;3.88;;
67063;SDS011;58476;48.072;11.970;2023-12-14T08:21:14;13.98;;;2.88;;
67063;SDS011;58476;48.072;11.970;2023-12-14T08:23:40;29.80;;;4.60;;
67063;SDS011;58476;48.072;11.970;2023-12-14T08:26:06;16.98;;;4.10;;
67063;SDS011;58476;48.072;11.970;2023-12-14T08:28:31;20.92;;;3.95;;
67063;SDS011;58476;48.072;11.970;2023-12-14T08:30:57;17.77;;;3.75;;
67063;SDS011;58476;48.072;11.970;2023-12-14T08:33:22;19.48;;;3.42;;
67063;SDS011;58476;48.072;11.970;2023-12-14T08:35:47;15.68;;;3.78;;
67063;SDS011;58476;48.072;11.970;2023-12-14T08:38:13;13.88;;;3.15;;
67063;SDS011;58476;48.072;11.970;2023-12-14T08:40:38;29.70;;;4.80;;
67063;SDS011;58476;48.072;11.970;2023-12-14T08:43:04;22.92;;;4.70;;
67063;SDS011;58476;48.072;11.970;2023-12-14T08:45:30;20.15;;;4.10;;
67063;SDS011;58476;48.072;11.970;2023-12-14T08:47:55;22.55;;;3.70;;
67063;SDS011;58476;48.072;11.970;2023-12-14T08:50:20;25.05;;;4.30;;
67063;SDS011;58476;48.072;11.970;2023-12-14T08:52:46;25.90;;;4.18;;
67063;SDS011;58476;48.072;11.970;2023-12-14T08:55:11;16.05;;;3.70;;
67063;SDS011;58476;48.072;11.970;2023-12-14T08:57:36;15.38;;;3.97;;
67063;SDS011;58476;48.072;11.970;2023-12-14T09:00:02;24.02;;;4.18;;
67063;SDS011;58476;48.072;11.970;2023-12-14T09:02:27;17.85;;;3.58;;
67063;SDS011;58476;48.072;11.970;2023-12-14T09:04:52;16.02;;;3.08;;
67063;SDS011;58476;48.072;11.970;2023-12-14T09:07:18;17.23;;;3.33;;
67063;SDS011;58476;48.072;11.970;2023-12-14T09:09:43;15.15;;;2.97;;
67063;SDS011;58476;48.072;11.970;2023-12-14T09:12:08;12.98;;;3.22;;
67063;SDS011;58476;48.072;11.970;2023-12-14T09:14:34;18.88;;;3.10;;
67063;SDS011;58476;48.072;11.970;2023-12-14T09:16:59;13.82;;;3.40;;
67063;SDS011;58476;48.072;11.970;2023-12-14T09:19:25;21.40;;;3.45;;
67063;SDS011;58476;48.072;11.970;2023-12-14T09:21:50;18.00;;;3.35;;
67063;SDS011;58476;48.072;11.970;2023-12-14T09:24:15;18.58;;;3.67;;
67063;SDS011;58476;48.072;11.970;2023-12-14T09:26:40;19.80;;;3.33;;
67063;SDS011;58476;48.072;11.970;2023-12-14T09:29:06;13.23;;;3.20;;
67063;SDS011;58476;48.072;11.970;2023-12-14T09:31:31;13.20;;;3.53;;
67063;SDS011;58476;48.072;11.970;2023-12-14T09:33:56;13.57;;;2.80;;
67063;SDS011;58476;48.072;11.970;2023-12-14T09:36:22;13.77;;;3.13;;
67063;SDS011;58476;48.072;11.970;2023-12-14T09:38:47;17.05;;;2.70;;
67063;SDS011;58476;48.072;11.970;2023-12-14T09:41:12;9.68;;;2.30;;
67063;SDS011;58476;48.072;11.970;2023-12-14T09:43:38;9.50;;;2.50;;
67063;SDS011;58476;48.072;11.970;2023-12-14T09:46:03;18.13;;;3.42;;
67063;SDS011;58476;48.072;11.970;2023-12-14T09:48:29;14.52;;;2.92;;
67063;SDS011;58476;48.072;11.970;2023-12-14T09:50:54;17.25;;;2.80;;
67063;SDS011;58476;48.072;11.970;2023-12-14T09:53:19;13.32;;;3.25;;
67063;SDS011;58476;48.072;11.970;2023-12-14T09:55:45;11.27;;;2.95;;
67063;SDS011;58476;48.072;11.970;2023-12-14T09:58:10;14.15;;;3.05;;
67063;SDS011;58476;48.072;11.970;2023-12-14T10:00:36;11.05;;;2.70;;
67063;SDS011;58476;48.072;11.970;2023-12-14T10:03:45;11.70;;;2.42;;
67063;SDS011;58476;48.072;11.970;2023-12-14T10:05:53;10.18;;;2.60;;
67063;SDS011;58476;48.072;11.970;2023-12-14T10:08:22;10.45;;;2.65;;
67063;SDS011;58476;48.072;11.970;2023-12-14T10:10:51;17.25;;;4.38;;
67063;SDS011;58476;48.072;11.970;2023-12-14T10:13:22;18.27;;;2.88;;
67063;SDS011;58476;48.072;11.970;2023-12-14T10:16:00;23.50;;;4.05;;
67063;SDS011;58476;48.072;11.970;2023-12-14T10:18:26;13.43;;;2.10;;
67063;SDS011;58476;48.072;11.970;2023-12-14T10:20:51;22.88;;;3.00;;
67063;SDS011;58476;48.072;11.970;2023-12-14T10:23:17;15.15;;;2.90;;
67063;SDS011;58476;48.072;11.970;2023-12-14T10:25:42;14.98;;;2.53;;
67063;SDS011;58476;48.072;11.970;2023-12-14T10:28:08;20.98;;;2.75;;
67063;SDS011;58476;48.072;11.970;2023-12-14T10:30:36;25.60;;;3.15;;
67063;SDS011;58476;48.072;11.970;2023-12-14T10:33:01;10.23;;;2.30;;
67063;SDS011;58476;48.072;11.970;2023-12-14T10:35:27;17.27;;;2.65;;
67063;SDS011;58476;48.072;11.970;2023-12-14T10:37:52;20.65;;;3.05;;
67063;SDS011;58476;48.072;11.970;2023-12-14T10:40:17;14.40;;;2.90;;
67063;SDS011;58476;48.072;11.970;2023-12-14T10:42:43;15.80;;;2.53;;
67063;SDS011;58476;48.072;11.970;2023-12-14T10:45:12;14.88;;;2.83;;
67063;SDS011;58476;48.072;11.970;2023-12-14T10:47:45;17.35;;;3.38;;
67063;SDS011;58476;48.072;11.970;2023-12-14T10:50:12;17.80;;;2.42;;
67063;SDS011;58476;48.072;11.970;2023-12-14T10:52:38;14.00;;;2.72;;
67063;SDS011;58476;48.072;11.970;2023-12-14T10:55:09;13.85;;;2.10;;
67063;SDS011;58476;48.072;11.970;2023-12-14T10:57:38;9.55;;;2.40;;
67063;SDS011;58476;48.072;11.970;2023-12-14T11:00:03;14.10;;;3.20;;
67063;SDS011;58476;48.072;11.970;2023-12-14T11:02:29;10.95;;;2.22;;
67063;SDS011;58476;48.072;11.970;2023-12-14T11:05:02;11.10;;;2.30;;
67063;SDS011;58476;48.072;11.970;2023-12-14T11:10:13;7.53;;;1.67;;
67063;SDS011;58476;48.072;11.970;2023-12-14T11:15:28;12.82;;;2.63;;
67063;SDS011;58476;48.072;11.970;2023-12-14T11:23:15;11.02;;;1.95;;
67063;SDS011;58476;48.072;11.970;2023-12-14T11:25:42;9.77;;;2.67;;
67063;SDS011;58476;48.072;11.970;2023-12-14T11:28:08;7.75;;;2.20;;
67063;SDS011;58476;48.072;11.970;2023-12-14T11:30:34;9.98;;;2.55;;
67063;SDS011;58476;48.072;11.970;2023-12-14T11:33:00;14.35;;;1.80;;
67063;SDS011;58476;48.072;11.970;2023-12-14T11:35:26;8.35;;;2.63;;
67063;SDS011;58476;48.072;11.970;2023-12-14T11:37:51;8.57;;;2.65;;
67063;SDS011;58476;48.072;11.970;2023-12-14T11:40:16;11.23;;;1.67;;
67063;SDS011;58476;48.072;11.970;2023-12-14T11:42:42;5.93;;;1.83;;
67063;SDS011;58476;48.072;11.970;2023-12-14T11:45:07;4.25;;;1.67;;
67063;SDS011;58476;48.072;11.970;2023-12-14T11:47:33;9.32;;;2.30;;
67063;SDS011;58476;48.072;11.970;2023-12-14T11:49:58;7.05;;;2.40;;
67063;SDS011;58476;48.072;11.970;2023-12-14T11:52:24;12.38;;;1.90;;
67063;SDS011;58476;48.072;11.970;2023-12-14T11:54:49;6.68;;;2.67;;
67063;SDS011;58476;48.072;11.970;2023-12-14T11:57:15;9.18;;;1.77;;
67063;SDS011;58476;48.072;11.970;2023-12-14T11:59:41;7.30;;;2.28;;
67063;SDS011;58476;48.072;11.970;2023-12-14T12:02:06;7.68;;;1.70;;
67063;SDS011;58476;48.072;11.970;2023-12-14T12:04:31;6.07;;;1.73;;
67063;SDS011;58476;48.072;11.970;2023-12-14T12:09:32;3.80;;;1.55;;
67063;SDS011;58476;48.072;11.970;2023-12-14T12:11:59;5.10;;;1.27;;
67063;SDS011;58476;48.072;11.970;2023-12-14T12:14:24;4.00;;;1.30;;
67063;SDS011;58476;48.072;11.970;2023-12-14T12:16:49;3.22;;;1.05;;
67063;SDS011;58476;48.072;11.970;2023-12-14T12:19:14;2.40;;;1.20;;
67063;SDS011;58476;48.072;11.970;2023-12-14T12:21:40;9.63;;;1.23;;
67063;SDS011;58476;48.072;11.970;2023-12-14T12:24:05;2.38;;;1.10;;
67063;SDS011;58476;48.072;11.970;2023-12-14T12:26:30;3.63;;;1.30;;
67063;SDS011;58476;48.072;11.970;2023-12-14T12:28:56;3.42;;;1.35;;
67063;SDS011;58476;48.072;11.970;2023-12-14T12:31:21;3.53;;;1.50;;
67063;SDS011;58476;48.072;11.970;2023-12-14T12:33:46;5.35;;;1.20;;
67063;SDS011;58476;48.072;11.970;2023-12-14T12:36:12;1.88;;;1.30;;
67063;SDS011;58476;48.072;11.970;2023-12-14T12:38:37;4.55;;;1.40;;
67063;SDS011;58476;48.072;11.970;2023-12-14T12:41:02;4.85;;;1.40;;
67063;SDS011;58476;48.072;11.970;2023-12-14T12:43:28;4.15;;;1.30;;
67063;SDS011;58476;48.072;11.970;2023-12-14T12:45:53;4.57;;;1.20;;
67063;SDS011;58476;48.072;11.970;2023-12-14T12:48:18;4.82;;;1.25;;
67063;SDS011;58476;48.072;11.970;2023-12-14T12:50:44;2.80;;;1.17;;
67063;SDS011;58476;48.072;11.970;2023-12-14T12:53:09;6.40;;;1.25;;
67063;SDS011;58476;48.072;11.970;2023-12-14T12:55:34;3.30;;;1.30;;
67063;SDS011;58476;48.072;11.970;2023-12-14T12:57:59;2.53;;;1.30;;
67063;SDS011;58476;48.072;11.970;2023-12-14T13:00:25;3.97;;;1.20;;
67063;SDS011;58476;48.072;11.970;2023-12-14T13:02:50;6.10;;;1.23;;
67063;SDS011;58476;48.072;11.970;2023-12-14T13:05:15;3.38;;;1.20;;
67063;SDS011;58476;48.072;11.970;2023-12-14T13:07:43;2.40;;;1.10;;
67063;SDS011;58476;48.072;11.970;2023-12-14T13:10:10;3.70;;;1.10;;
67063;SDS011;58476;48.072;11.970;2023-12-14T13:12:35;2.45;;;1.40;;
67063;SDS011;58476;48.072;11.970;2023-12-14T13:15:00;3.80;;;1.05;;
67063;SDS011;58476;48.072;11.970;2023-12-14T13:17:26;1.77;;;1.20;;
67063;SDS011;58476;48.072;11.970;2023-12-14T13:19:52;2.58;;;1.00;;
67063;SDS011;58476;48.072;11.970;2023-12-14T13:22:17;2.13;;;1.05;;
67063;SDS011;58476;48.072;11.970;2023-12-14T13:24:44;1.52;;;1.00;;
67063;SDS011;58476;48.072;11.970;2023-12-14T13:27:10;1.85;;;1.05;;
67063;SDS011;58476;48.072;11.970;2023-12-14T13:29:35;4.30;;;1.20;;
67063;SDS011;58476;48.072;11.970;2023-12-14T13:32:00;1.77;;;1.10;;
67063;SDS011;58476;48.072;11.970;2023-12-14T13:34:26;3.20;;;1.20;;
67063;SDS011;58476;48.072;11.970;2023-12-14T13:36:52;3.45;;;1.20;;
67063;SDS011;58476;48.072;11.970;2023-12-14T13:39:17;2.90;;;1.20;;
67063;SDS011;58476;48.072;11.970;2023-12-14T13:41:42;3.45;;;1.10;;
67063;SDS011;58476;48.072;11.970;2023-12-14T13:44:08;1.73;;;1.00;;
67063;SDS011;58476;48.072;11.970;2023-12-14T13:46:33;1.20;;;0.90;;
67063;SDS011;58476;48.072;11.970;2023-12-14T13:48:58;5.63;;;1.30;;
67063;SDS011;58476;48.072;11.970;2023-12-14T13:51:24;1.35;;;0.98;;
67063;SDS011;58476;48.072;11.970;2023-12-14T13:53:49;4.28;;;1.20;;
67063;SDS011;58476;48.072;11.970;2023-12-14T13:56:14;1.05;;;0.98;;
67063;SDS011;58476;48.072;11.970;2023-12-14T13:58:40;1.05;;;0.95;;
67063;SDS011;58476;48.072;11.970;2023-12-14T14:01:08;2.80;;;1.00;;
67063;SDS011;58476;48.072;11.970;2023-12-14T14:03:34;1.20;;;1.10;;
67063;SDS011;58476;48.072;11.970;2023-12-14T14:05:59;2.17;;;1.00;;
67063;SDS011;58476;48.072;11.970;2023-12-14T14:08:25;1.80;;;1.38;;
67063;SDS011;58476;48.072;11.970;2023-12-14T14:10:50;3.35;;;1.10;;
67063;SDS011;58476;48.072;11.970;2023-12-14T14:13:15;4.80;;;1.20;;
67063;SDS011;58476;48.072;11.970;2023-12-14T14:15:40;6.50;;;1.23;;
67063;SDS011;58476;48.072;11.970;2023-12-14T14:18:06;2.53;;;1.20;;
67063;SDS011;58476;48.072;11.970;2023-12-14T14:20:31;4.82;;;1.30;;
67063;SDS011;58476;48.072;11.970;2023-12-14T14:22:57;2.78;;;1.10;;
67063;SDS011;58476;48.072;11.970;2023-12-14T14:25:24;2.30;;;1.25;;
67063;SDS011;58476;48.072;11.970;2023-12-14T14:27:50;3.05;;;1.25;;
67063;SDS011;58476;48.072;11.970;2023-12-14T14:30:15;3.13;;;1.30;;
67063;SDS011;58476;48.072;11.970;2023-12-14T14:32:40;2.13;;;0.90;;
67063;SDS011;58476;48.072;11.970;2023-12-14T14:35:06;3.97;;;1.20;;